Time;durP1;ratioP1;P1;durP2;ratioP2;P2;SDS_P1;SDS_P2;PMS_P1;PMS_P2;Temp;Humidity;BMP_temperature;BMP_pressure;BME280_temperature;BME280_humidity;BME280_pressure;Samples;Min_cycle;Max_cycle;Signal;HPM_P1;HPM_P2
2022/08/06 00:01:52;;;;;;;5.57;3.27;;;23.40;1.00;;;;;;5071825;28;20487;-68
2022/08/06 00:04:21;;;;;;;5.83;3.10;;;23.60;1.00;;;;;;5071462;28;20396;-71
2022/08/06 00:06:46;;;;;;;4.10;3.07;;;23.80;99.90;;;;;;5071001;28;20605;-70
2022/08/06 00:09:12;;;;;;;4.07;2.70;;;23.70;99.90;;;;;;5070253;28;20508;-68
2022/08/06 00:11:39;;;;;;;4.57;2.80;;;23.20;1.00;;;;;;5054487;28;20205;-67
2022/08/06 00:14:05;;;;;;;25.77;4.73;;;23.00;1.00;;;;;;5051244;28;20163;-68
2022/08/06 00:16:31;;;;;;;5.27;2.50;;;22.80;84.40;;;;;;5051411;28;20412;-69
2022/08/06 00:18:57;;;;;;;4.87;2.77;;;22.60;99.90;;;;;;5050187;28;21000;-69
2022/08/06 00:21:22;;;;;;;5.57;2.73;;;22.70;99.40;;;;;;5050900;28;20220;-68
2022/08/06 00:23:48;;;;;;;9.80;3.03;;;22.30;99.90;;;;;;5050828;28;20173;-70
2022/08/06 00:26:14;;;;;;;4.93;2.90;;;22.50;1.00;;;;;;5051270;28;20190;-70
2022/08/06 00:28:40;;;;;;;3.43;2.87;;;22.80;99.90;;;;;;5050446;28;20552;-69
2022/08/06 00:31:07;;;;;;;5.73;3.37;;;22.70;99.90;;;;;;5051165;28;20178;-68
2022/08/06 00:33:33;;;;;;;5.33;3.17;;;22.70;99.90;;;;;;5051165;28;20262;-68
2022/08/06 00:35:59;;;;;;;4.90;3.23;;;22.60;99.90;;;;;;5050972;28;20433;-69
2022/08/06 00:38:25;;;;;;;7.23;3.70;;;22.90;99.90;;;;;;5049261;28;20456;-69
2022/08/06 00:40:52;;;;;;;5.50;4.20;;;23.40;1.00;;;;;;5050855;28;20170;-69
2022/08/06 00:43:18;;;;;;;4.87;3.07;;;23.30;1.00;;;;;;5050895;28;20166;-69
2022/08/06 00:45:43;;;;;;;5.10;3.33;;;23.10;1.00;;;;;;5050769;28;20898;-67
2022/08/06 00:48:09;;;;;;;4.30;3.17;;;23.20;1.00;;;;;;5049499;28;20554;-70
2022/08/06 00:50:35;;;;;;;6.33;4.03;;;23.10;33.40;;;;;;5049579;28;20177;-69
2022/08/06 00:53:02;;;;;;;11.03;3.80;;;23.00;99.90;;;;;;5050262;28;20246;-69
2022/08/06 00:55:29;;;;;;;7.40;4.73;;;23.20;99.90;;;;;;5050744;28;20595;-68
2022/08/06 00:57:55;;;;;;;9.87;3.93;;;23.50;99.90;;;;;;5049995;28;20438;-69
2022/08/06 01:00:20;;;;;;;10.67;4.17;;;23.60;1.00;;;;;;5050323;28;20833;-68
2022/08/06 01:02:46;;;;;;;5.70;3.70;;;23.70;38.20;;;;;;5050464;28;20640;-70
2022/08/06 01:05:12;;;;;;;4.03;3.60;;;23.80;22.20;;;;;;5050729;28;20213;-69
2022/08/06 01:07:38;;;;;;;5.13;4.70;;;23.70;1.00;;;;;;5049114;28;20550;-70
2022/08/06 01:10:04;;;;;;;6.53;4.00;;;23.80;1.00;;;;;;5050188;28;20520;-70
2022/08/06 01:12:30;;;;;;;6.20;4.93;;;23.70;1.00;;;;;;5054187;28;20170;-70
2022/08/06 01:14:55;;;;;;;6.73;3.50;;;23.50;1.00;;;;;;5053758;28;20774;-70
2022/08/06 01:17:31;;;;;;;4.10;3.70;;;23.50;99.90;;;;;;5052860;28;20244;-70
2022/08/06 01:20:17;;;;;;;4.80;3.57;;;23.40;99.90;;;;;;5062062;28;20194;-67
2022/08/06 01:23:20;;;;;;;6.10;4.27;;;23.40;99.90;;;;;;5065324;28;20888;-67
2022/08/06 01:25:52;;;;;;;8.07;3.80;;;23.10;99.90;;;;;;5067420;28;20476;-68
2022/08/06 01:28:48;;;;;;;7.70;4.03;;;23.20;99.90;;;;;;5066162;28;20459;-67
2022/08/06 01:31:19;;;;;;;5.53;3.43;;;23.20;99.90;;;;;;5028860;28;20432;-66
2022/08/06 01:33:57;;;;;;;3.50;3.13;;;23.20;99.90;;;;;;5070387;28;20420;-67
2022/08/06 01:36:39;;;;;;;4.40;3.00;;;23.30;99.90;;;;;;5069094;28;20416;-67
2022/08/06 01:39:05;;;;;;;5.13;3.20;;;23.30;99.90;;;;;;5057727;28;20851;-67
2022/08/06 01:41:43;;;;;;;11.90;3.50;;;23.10;99.90;;;;;;5054221;28;20500;-67
2022/08/06 01:44:15;;;;;;;3.40;3.10;;;23.00;99.90;;;;;;5054276;28;20257;-67
2022/08/06 01:46:46;;;;;;;5.23;3.30;;;22.20;99.90;;;;;;5054357;28;20496;-69
2022/08/06 01:49:15;;;;;;;3.17;2.70;;;22.10;99.90;;;;;;5053354;28;20421;-70
2022/08/06 01:51:43;;;;;;;3.70;3.40;;;22.10;99.90;;;;;;5054175;28;20390;-69
2022/08/06 01:54:10;;;;;;;4.50;3.13;;;21.90;99.90;;;;;;5054219;28;20401;-69
2022/08/06 01:56:38;;;;;;;4.60;3.50;;;21.70;99.90;;;;;;5036249;28;20414;-69
2022/08/06 01:59:07;;;;;;;7.43;3.57;;;21.70;99.90;;;;;;5053154;28;20856;-68
2022/08/06 02:01:34;;;;;;;5.83;3.60;;;21.90;99.90;;;;;;5053780;28;20478;-69
2022/08/06 02:04:01;;;;;;;8.43;3.20;;;22.30;99.90;;;;;;5053958;28;20436;-69
2022/08/06 02:06:34;;;;;;;4.40;3.00;;;22.50;99.90;;;;;;5053502;28;20820;-70
2022/08/06 02:09:05;;;;;;;4.37;2.80;;;21.90;99.90;;;;;;5052123;28;20445;-68
2022/08/06 02:11:34;;;;;;;9.27;3.33;;;21.90;99.90;;;;;;5053601;28;20741;-68
2022/08/06 02:14:01;;;;;;;6.87;2.97;;;22.00;99.90;;;;;;5053676;28;20458;-68
2022/08/06 02:16:34;;;;;;;7.00;3.13;;;22.40;99.90;;;;;;5053669;28;20402;-68
2022/08/06 02:19:03;;;;;;;5.63;3.60;;;22.20;99.90;;;;;;5052667;28;20959;-68
2022/08/06 02:21:31;;;;;;;4.10;3.10;;;22.10;99.90;;;;;;5053639;28;20780;-68
2022/08/06 02:24:00;;;;;;;3.80;2.60;;;22.10;99.90;;;;;;5052958;28;20765;-67
2022/08/06 02:26:27;;;;;;;5.03;3.37;;;22.10;99.90;;;;;;5053336;28;20948;-68
2022/08/06 02:28:55;;;;;;;10.10;4.00;;;22.10;99.90;;;;;;5052607;28;20416;-66
2022/08/06 02:31:21;;;;;;;11.50;2.87;;;22.10;99.90;;;;;;5053616;28;20408;-67
2022/08/06 02:33:47;;;;;;;2.93;2.60;;;22.30;99.90;;;;;;5053560;28;20413;-69
2022/08/06 02:36:14;;;;;;;4.57;3.20;;;22.10;99.90;;;;;;5053259;28;20270;-69
2022/08/06 02:38:53;;;;;;;4.70;2.73;;;21.20;99.90;;;;;;5051760;28;20912;-70
2022/08/06 02:41:24;;;;;;;4.60;2.90;;;21.20;99.90;;;;;;5053499;28;20770;-69
2022/08/06 02:43:57;;;;;;;5.30;3.10;;;20.90;99.90;;;;;;5053120;28;20412;-68
2022/08/06 02:46:29;;;;;;;4.57;3.23;;;20.90;99.90;;;;;;5052832;28;20437;-70
2022/08/06 02:49:14;;;;;;;4.93;2.87;;;21.20;99.90;;;;;;5052280;28;20959;-70
2022/08/06 02:52:06;;;;;;;3.23;2.70;;;21.60;99.90;;;;;;5052673;28;20382;-69
2022/08/06 02:54:39;;;;;;;4.20;2.83;;;21.70;99.90;;;;;;5042197;28;20417;-69
2022/08/06 02:57:11;;;;;;;3.80;2.70;;;22.20;99.90;;;;;;5052209;28;20432;-70
2022/08/06 02:59:45;;;;;;;3.00;2.67;;;22.30;99.90;;;;;;5052842;28;20870;-70
2022/08/06 03:02:14;;;;;;;2.90;2.60;;;20.90;99.90;;;;;;5053388;28;20419;-71
2022/08/06 03:04:42;;;;;;;6.57;3.10;;;21.20;99.90;;;;;;5052892;28;20459;-69
2022/08/06 03:07:11;;;;;;;6.50;2.80;;;21.50;99.90;;;;;;5051135;28;20456;-69
2022/08/06 03:09:39;;;;;;;3.50;3.00;;;21.30;99.90;;;;;;5052303;28;20524;-69
2022/08/06 03:12:07;;;;;;;8.30;3.10;;;21.60;99.90;;;;;;5052741;28;20761;-69
2022/08/06 03:14:36;;;;;;;7.37;3.00;;;21.50;99.90;;;;;;5052485;28;20421;-68
2022/08/06 03:17:03;;;;;;;3.60;2.70;;;21.20;99.90;;;;;;5052207;28;21150;-69
2022/08/06 03:19:31;;;;;;;3.07;2.70;;;20.90;99.90;;;;;;5051901;28;20433;-68
2022/08/06 03:21:58;;;;;;;4.20;3.10;;;21.40;99.90;;;;;;5033570;28;20422;-68
2022/08/06 03:24:25;;;;;;;5.13;3.20;;;21.50;99.90;;;;;;5052110;28;20763;-69
2022/08/06 03:26:52;;;;;;;4.97;3.07;;;21.60;99.90;;;;;;5052050;28;20902;-69
2022/08/06 03:29:19;;;;;;;17.97;4.40;;;22.10;99.90;;;;;;5055077;28;20994;-69
2022/08/06 03:31:45;;;;;;;5.67;2.57;;;22.60;99.90;;;;;;5072267;28;20405;-70
2022/08/06 03:34:12;;;;;;;4.80;2.70;;;22.40;99.90;;;;;;5072637;28;20453;-69
2022/08/06 03:36:38;;;;;;;5.73;3.13;;;22.80;99.90;;;;;;5072391;28;20174;-70
2022/08/06 03:39:07;;;;;;;15.07;3.57;;;22.60;99.90;;;;;;5070258;28;20924;-68
2022/08/06 03:41:36;;;;;;;5.30;2.63;;;22.60;99.90;;;;;;5065454;28;20469;-70
2022/08/06 03:44:03;;;;;;;17.13;3.70;;;22.50;99.90;;;;;;5066216;28;20896;-68
2022/08/06 03:46:32;;;;;;;11.63;3.33;;;22.60;99.90;;;;;;5072583;28;20991;-67
2022/08/06 03:49:01;;;;;;;4.67;3.00;;;22.90;99.90;;;;;;5071859;28;20511;-68
2022/08/06 03:51:28;;;;;;;3.80;2.70;;;22.80;99.90;;;;;;5052467;28;20421;-68
2022/08/06 03:53:58;;;;;;;4.40;2.73;;;22.50;99.90;;;;;;5053952;28;20425;-67
2022/08/06 03:56:27;;;;;;;3.23;2.20;;;22.10;99.90;;;;;;5070021;28;20920;-67
2022/08/06 03:58:56;;;;;;;5.97;3.40;;;22.60;99.90;;;;;;5037242;28;20444;-68
2022/08/06 04:01:26;;;;;;;7.73;2.50;;;22.50;99.90;;;;;;5055577;28;20428;-68
2022/08/06 04:03:53;;;;;;;3.60;2.83;;;22.70;99.90;;;;;;5066659;28;20492;-69
2022/08/06 04:06:21;;;;;;;9.10;3.67;;;22.70;99.90;;;;;;5061171;28;20981;-68
2022/08/06 04:08:48;;;;;;;5.10;3.13;;;22.50;99.90;;;;;;5060284;28;20449;-66
2022/08/06 04:11:16;;;;;;;3.23;2.40;;;22.30;99.90;;;;;;5061881;28;20914;-65
2022/08/06 04:13:43;;;;;;;8.87;2.90;;;22.60;99.90;;;;;;5063696;28;20470;-67
2022/08/06 04:16:12;;;;;;;5.17;2.87;;;22.80;99.90;;;;;;5069966;28;21191;-67
2022/08/06 04:18:40;;;;;;;6.07;3.07;;;22.30;99.90;;;;;;5062678;28;20420;-67
2022/08/06 04:21:10;;;;;;;5.87;2.80;;;22.10;99.90;;;;;;5059729;28;20424;-67
2022/08/06 04:23:38;;;;;;;4.60;2.47;;;22.20;99.90;;;;;;5052844;28;20830;-67
2022/08/06 04:26:07;;;;;;;27.27;4.83;;;22.20;99.90;;;;;;5060913;28;20424;-68
2022/08/06 04:28:36;;;;;;;43.03;8.10;;;22.10;99.90;;;;;;5068813;28;20813;-69
2022/08/06 04:31:03;;;;;;;5.63;2.73;;;22.20;99.90;;;;;;5064740;28;20406;-67
2022/08/06 04:33:33;;;;;;;6.37;2.90;;;22.10;99.90;;;;;;5053754;28;20425;-67
2022/08/06 04:36:04;;;;;;;15.87;3.57;;;21.70;99.90;;;;;;5053373;28;20800;-68
2022/08/06 04:38:31;;;;;;;3.90;3.00;;;21.90;99.90;;;;;;5062842;28;20505;-66
2022/08/06 04:40:57;;;;;;;49.37;7.90;;;22.30;99.90;;;;;;5053952;28;20437;-66
2022/08/06 04:43:23;;;;;;;9.50;3.00;;;22.10;99.90;;;;;;5055910;28;21006;-69
2022/08/06 04:45:49;;;;;;;6.93;2.43;;;22.10;99.90;;;;;;5052964;28;20445;-67
2022/08/06 04:48:15;;;;;;;3.60;2.23;;;22.30;99.90;;;;;;5059074;28;20454;-67
2022/08/06 04:50:41;;;;;;;5.63;2.40;;;22.10;99.90;;;;;;5058059;28;20837;-68
2022/08/06 04:53:09;;;;;;;2.63;2.43;;;21.80;99.90;;;;;;5064596;28;20424;-68
2022/08/06 04:55:36;;;;;;;12.20;3.47;;;21.80;99.90;;;;;;5068781;28;20177;-69
2022/08/06 04:58:03;;;;;;;6.27;3.10;;;21.80;99.90;;;;;;5064877;28;20462;-68
2022/08/06 05:00:31;;;;;;;3.23;2.87;;;21.20;99.90;;;;;;5060497;28;20829;-68
2022/08/06 05:02:58;;;;;;;14.73;4.63;;;20.90;99.90;;;;;;5072078;28;20454;-69
2022/08/06 05:05:24;;;;;;;7.77;3.10;;;20.40;99.90;;;;;;5074397;28;20778;-68
2022/08/06 05:07:53;;;;;;;5.33;3.47;;;20.00;99.90;;;;;;5074048;28;20471;-67
2022/08/06 05:10:22;;;;;;;6.50;3.77;;;19.90;99.90;;;;;;5074808;28;20428;-69
2022/08/06 05:12:53;;;;;;;4.23;3.17;;;20.00;99.90;;;;;;5060021;28;20406;-68
2022/08/06 05:15:49;;;;;;;27.00;6.30;;;19.90;99.90;;;;;;5056474;28;20905;-68
2022/08/06 05:18:30;;;;;;;6.47;3.63;;;19.80;99.90;;;;;;5054672;28;20769;-68
2022/08/06 05:20:56;;;;;;;2.93;2.40;;;19.90;99.90;;;;;;5058764;28;20411;-69
2022/08/06 05:23:35;;;;;;;7.13;3.50;;;19.80;99.90;;;;;;5059921;28;20748;-70
2022/08/06 05:26:01;;;;;;;7.13;3.90;;;19.90;99.90;;;;;;5059297;28;20386;-70
2022/08/06 05:28:26;;;;;;;5.43;3.87;;;19.80;99.90;;;;;;5058287;28;20432;-69
2022/08/06 05:30:52;;;;;;;6.60;4.23;;;19.40;99.90;;;;;;5051801;28;20402;-68
2022/08/06 05:33:27;;;;;;;8.80;3.37;;;19.50;99.90;;;;;;5033144;28;20167;-70
2022/08/06 05:35:54;;;;;;;5.03;3.13;;;19.60;99.90;;;;;;5050988;28;20220;-69
2022/08/06 05:38:20;;;;;;;6.40;4.20;;;19.40;99.90;;;;;;5050738;28;20460;-70
2022/08/06 05:40:46;;;;;;;4.10;3.73;;;19.10;99.90;;;;;;5050878;28;20435;-70
2022/08/06 05:43:12;;;;;;;11.27;4.50;;;18.70;99.90;;;;;;5050766;28;20417;-68
2022/08/06 05:45:41;;;;;;;5.17;4.23;;;18.70;99.90;;;;;;5051043;28;20163;-68
2022/08/06 05:48:09;;;;;;;13.20;4.70;;;18.60;99.90;;;;;;5050233;28;20203;-70
2022/08/06 05:50:40;;;;;;;4.67;4.27;;;18.50;1.00;;;;;;5050666;28;20401;-69
2022/08/06 05:53:23;;;;;;;6.07;3.80;;;18.60;99.90;;;;;;5032816;28;20410;-69
2022/08/06 05:55:56;;;;;;;8.20;4.17;;;18.50;99.90;;;;;;5050639;28;20397;-69
2022/08/06 05:58:35;;;;;;;4.47;4.00;;;18.60;99.90;;;;;;5050455;28;20918;-68
2022/08/06 06:01:05;;;;;;;5.43;4.90;;;18.70;99.90;;;;;;5050660;28;20413;-67
2022/08/06 06:03:31;;;;;;;7.40;5.00;;;18.50;1.00;;;;;;5050655;28;20437;-68
2022/08/06 06:05:59;;;;;;;5.13;4.63;;;18.70;99.90;;;;;;5050814;28;20401;-69
2022/08/06 06:08:26;;;;;;;6.13;4.70;;;18.80;99.90;;;;;;5050167;28;20441;-70
2022/08/06 06:10:52;;;;;;;4.87;4.20;;;18.70;99.90;;;;;;5051058;28;20409;-70
2022/08/06 06:13:20;;;;;;;7.73;4.70;;;18.70;1.00;;;;;;5032834;28;20467;-69
2022/08/06 06:15:55;;;;;;;7.20;5.40;;;18.60;1.00;;;;;;5050740;28;20901;-68
2022/08/06 06:18:48;;;;;;;5.60;5.10;;;18.70;99.90;;;;;;5051086;28;20412;-68
2022/08/06 06:21:27;;;;;;;5.63;5.13;;;18.50;1.00;;;;;;5036636;28;20404;-69
2022/08/06 06:24:09;;;;;;;14.43;6.17;;;18.40;1.00;;;;;;5054405;28;20450;-68
2022/08/06 06:26:46;;;;;;;70.87;12.10;;;18.60;1.00;;;;;;5054150;28;20453;-69
2022/08/06 06:29:15;;;;;;;6.40;5.23;;;18.70;1.00;;;;;;5053744;28;20429;-69
2022/08/06 06:31:49;;;;;;;7.77;4.93;;;18.80;1.00;;;;;;5053929;28;20448;-68
2022/08/06 06:34:17;;;;;;;5.30;4.87;;;18.90;1.00;;;;;;5054224;28;20479;-69
2022/08/06 06:37:01;;;;;;;8.23;4.97;;;19.00;1.00;;;;;;5054660;28;20437;-67
2022/08/06 06:39:54;;;;;;;9.33;6.10;;;18.70;1.00;;;;;;5054447;28;20853;-68
2022/08/06 06:42:29;;;;;;;13.90;5.13;;;18.80;1.00;;;;;;5054019;28;20397;-67
2022/08/06 06:45:14;;;;;;;6.90;6.17;;;18.70;1.00;;;;;;5054297;28;20412;-68
2022/08/06 06:47:45;;;;;;;5.40;4.90;;;18.80;1.00;;;;;;5053633;28;20457;-67
2022/08/06 06:50:28;;;;;;;15.27;6.43;;;18.90;1.00;;;;;;5054053;28;20808;-68
2022/08/06 06:52:55;;;;;;;8.30;6.00;;;18.80;1.00;;;;;;5054282;28;20909;-70
2022/08/06 06:55:41;;;;;;;7.97;5.67;;;18.90;1.00;;;;;;5054308;28;20924;-70
2022/08/06 06:58:39;;;;;;;6.87;6.17;;;18.90;99.90;;;;;;5054168;28;20776;-71
2022/08/06 07:01:08;;;;;;;49.30;10.77;;;18.60;99.90;;;;;;5053763;28;21087;-66
2022/08/06 07:03:36;;;;;;;12.03;6.20;;;18.90;1.00;;;;;;5054012;28;20777;-68
2022/08/06 07:06:05;;;;;;;7.87;6.07;;;18.90;99.90;;;;;;5053919;28;20406;-67
2022/08/06 07:08:34;;;;;;;9.70;6.07;;;19.00;99.90;;;;;;5053425;28;20453;-68
2022/08/06 07:11:01;;;;;;;8.67;5.67;;;18.90;99.90;;;;;;5054040;28;20416;-68
2022/08/06 07:13:29;;;;;;;6.83;6.23;;;18.80;99.90;;;;;;5053930;28;20406;-68
2022/08/06 07:15:56;;;;;;;7.30;6.60;;;18.80;1.00;;;;;;5054152;28;20494;-67
2022/08/06 07:18:26;;;;;;;6.40;5.80;;;19.10;99.90;;;;;;5054156;28;20449;-67
2022/08/06 07:20:53;;;;;;;7.10;6.10;;;18.90;99.90;;;;;;5053911;28;20416;-69
2022/08/06 07:23:20;;;;;;;8.50;6.00;;;19.00;99.90;;;;;;5053386;28;20420;-68
2022/08/06 07:25:48;;;;;;;6.67;6.07;;;19.20;99.90;;;;;;5053594;28;20421;-67
2022/08/06 07:28:15;;;;;;;23.63;8.00;;;19.30;99.90;;;;;;5052866;28;20456;-69
2022/08/06 07:30:42;;;;;;;11.43;6.83;;;19.40;99.90;;;;;;5051124;28;20409;-70
2022/08/06 07:33:10;;;;;;;9.40;6.93;;;19.30;99.90;;;;;;5053016;28;20430;-70
2022/08/06 07:35:40;;;;;;;9.03;6.00;;;19.40;99.90;;;;;;5053055;28;20401;-69
2022/08/06 07:38:08;;;;;;;6.50;5.77;;;19.30;99.90;;;;;;5051275;28;20520;-69
2022/08/06 07:40:44;;;;;;;6.67;5.63;;;19.20;99.90;;;;;;5052667;28;20449;-68
2022/08/06 07:43:32;;;;;;;6.80;5.80;;;19.20;99.90;;;;;;5052826;28;20419;-69
2022/08/06 07:46:02;;;;;;;9.73;6.87;;;18.40;99.90;;;;;;5053585;28;20411;-69
2022/08/06 07:48:36;;;;;;;11.37;6.70;;;18.10;1.00;;;;;;5053019;28;20543;-70
2022/08/06 07:51:04;;;;;;;6.30;5.80;;;18.20;1.00;;;;;;5053095;28;20492;-70
2022/08/06 07:53:31;;;;;;;7.47;6.30;;;18.50;99.90;;;;;;5052801;28;20442;-69
2022/08/06 07:55:59;;;;;;;8.90;6.40;;;18.50;99.90;;;;;;5053056;28;20420;-69
2022/08/06 07:58:25;;;;;;;7.83;6.00;;;18.70;99.90;;;;;;5052438;28;20410;-70
2022/08/06 08:00:51;;;;;;;8.13;6.13;;;18.70;99.90;;;;;;5053076;28;20739;-69
2022/08/06 08:06:18;;;;;;;8.60;7.33;;;18.70;99.90;;;;;;5052749;28;20670;-70
2022/08/06 08:08:53;;;;;;;7.07;6.47;;;18.90;99.90;;;;;;5052419;28;20452;-71
2022/08/06 08:11:20;;;;;;;8.30;6.13;;;19.10;99.90;;;;;;5052530;28;20425;-70
2022/08/06 08:13:45;;;;;;;6.70;6.03;;;19.40;99.90;;;;;;5052320;28;20410;-69
2022/08/06 08:16:14;;;;;;;7.30;5.80;;;19.40;99.90;;;;;;5052442;28;20545;-70
2022/08/06 08:18:40;;;;;;;10.53;7.50;;;19.10;99.90;;;;;;5052824;28;20198;-70
2022/08/06 08:21:08;;;;;;;7.40;6.70;;;18.60;99.90;;;;;;5053551;28;20484;-70
2022/08/06 08:23:35;;;;;;;11.30;7.00;;;18.80;99.90;;;;;;5054049;28;20397;-69
2022/08/06 08:26:02;;;;;;;11.10;7.80;;;19.10;99.90;;;;;;5052836;28;20398;-70
2022/08/06 08:28:30;;;;;;;7.83;6.53;;;19.10;99.90;;;;;;5052268;28;20934;-70
2022/08/06 08:30:58;;;;;;;6.47;5.87;;;19.00;99.90;;;;;;5052444;28;20766;-69
2022/08/06 08:33:25;;;;;;;7.10;6.50;;;18.80;99.90;;;;;;5052387;28;20414;-70
2022/08/06 08:35:51;;;;;;;8.87;7.27;;;19.10;99.90;;;;;;5052389;28;20405;-70
2022/08/06 08:38:17;;;;;;;9.90;7.47;;;19.20;99.90;;;;;;5052053;28;20425;-72
2022/08/06 08:40:44;;;;;;;11.37;7.30;;;19.20;99.90;;;;;;5034398;28;20579;-70
2022/08/06 08:43:16;;;;;;;7.10;6.40;;;18.90;99.90;;;;;;5052153;28;20413;-70
2022/08/06 08:45:45;;;;;;;8.53;7.67;;;19.10;99.90;;;;;;5052604;28;20423;-70
2022/08/06 08:48:12;;;;;;;7.33;6.63;;;19.20;99.90;;;;;;5052625;28;20457;-69
2022/08/06 08:50:40;;;;;;;8.50;6.80;;;19.20;99.90;;;;;;5052451;28;20402;-68
2022/08/06 08:53:13;;;;;;;10.43;8.00;;;18.90;99.90;;;;;;5052430;28;20505;-68
2022/08/06 08:55:40;;;;;;;9.17;7.53;;;19.00;99.90;;;;;;5052282;28;20898;-71
2022/08/06 08:58:07;;;;;;;8.17;7.37;;;19.00;99.90;;;;;;5051612;28;20422;-70
2022/08/06 09:00:33;;;;;;;8.00;7.20;;;19.00;99.90;;;;;;5052092;28;20438;-69
2022/08/06 09:03:02;;;;;;;11.87;7.57;;;19.00;99.90;;;;;;5052185;28;20402;-70
2022/08/06 09:05:30;;;;;;;8.43;7.63;;;18.90;99.90;;;;;;5052087;28;20458;-72
2022/08/06 09:10:24;;;;;;;7.20;6.50;;;18.90;99.90;;;;;;5006439;28;20464;-67
2022/08/06 09:12:50;;;;;;;10.90;8.13;;;19.00;99.90;;;;;;5003415;28;20407;-67
2022/08/06 09:15:17;;;;;;;28.80;8.23;;;19.10;99.90;;;;;;5003349;28;20465;-66
2022/08/06 09:17:46;;;;;;;7.27;6.57;;;19.60;99.90;;;;;;5011243;28;20439;-65
2022/08/06 09:20:12;;;;;;;7.50;6.77;;;19.90;99.90;;;;;;5030131;28;21299;-66
2022/08/06 09:22:38;;;;;;;8.77;6.47;;;19.90;99.90;;;;;;5031295;28;20403;-65
2022/08/06 09:25:04;;;;;;;7.53;6.83;;;19.80;99.90;;;;;;5031208;28;20171;-65
2022/08/06 09:27:34;;;;;;;8.00;6.57;;;19.80;99.90;;;;;;5030953;28;20199;-65
2022/08/06 09:30:07;;;;;;;10.47;7.30;;;19.60;99.90;;;;;;5022908;28;20786;-64
2022/08/06 09:32:43;;;;;;;6.80;6.27;;;19.80;99.90;;;;;;5023654;28;20410;-66
2022/08/06 09:35:17;;;;;;;7.63;6.63;;;19.30;99.90;;;;;;5031190;28;20431;-65
2022/08/06 09:37:42;;;;;;;11.43;7.20;;;19.20;99.90;;;;;;5030885;28;20545;-66
2022/08/06 09:40:19;;;;;;;8.30;7.50;;;19.40;99.90;;;;;;5030814;28;20505;-66
2022/08/06 09:42:48;;;;;;;9.80;7.00;;;19.30;99.90;;;;;;5030941;28;20175;-65
2022/08/06 09:45:16;;;;;;;7.83;7.13;;;19.20;99.90;;;;;;5030917;28;20417;-65
2022/08/06 09:47:43;;;;;;;10.17;8.40;;;19.30;99.90;;;;;;5030611;28;20809;-66
2022/08/06 09:50:09;;;;;;;7.93;7.27;;;19.50;99.90;;;;;;5030702;28;20525;-66
2022/08/06 09:52:35;;;;;;;9.63;7.23;;;19.40;99.90;;;;;;5022425;28;20464;-65
2022/08/06 09:55:01;;;;;;;8.40;7.60;;;19.70;99.90;;;;;;5018640;28;20403;-65
2022/08/06 09:57:41;;;;;;;7.60;7.00;;;20.00;99.90;;;;;;5022673;28;20175;-65
2022/08/06 10:00:08;;;;;;;9.63;8.60;;;20.00;99.90;;;;;;5017169;28;20430;-65
2022/08/06 10:02:35;;;;;;;10.00;9.10;;;19.90;99.90;;;;;;5014706;28;20435;-64
2022/08/06 10:05:11;;;;;;;11.63;8.33;;;19.50;99.90;;;;;;5014724;28;20399;-65
2022/08/06 10:07:37;;;;;;;12.03;8.03;;;19.80;99.90;;;;;;5014419;28;20497;-65
2022/08/06 10:10:05;;;;;;;9.23;8.13;;;19.70;99.90;;;;;;5014333;28;20443;-66
2022/08/06 10:12:32;;;;;;;9.43;7.83;;;19.90;99.90;;;;;;5015304;28;20586;-66
2022/08/06 10:14:59;;;;;;;9.90;7.83;;;20.20;99.90;;;;;;5014472;28;20416;-65
2022/08/06 10:17:25;;;;;;;9.73;8.73;;;20.40;99.90;;;;;;5014513;28;20400;-65
2022/08/06 10:20:13;;;;;;;11.50;9.00;;;20.70;99.90;;;;;;5014347;28;20854;-65
2022/08/06 10:22:56;;;;;;;8.67;7.63;;;20.40;99.90;;;;;;5014435;28;20453;-66
2022/08/06 10:25:24;;;;;;;13.10;8.07;;;20.60;99.90;;;;;;5014364;28;20407;-66
2022/08/06 10:27:53;;;;;;;9.37;7.60;;;20.60;99.90;;;;;;5013949;28;20489;-65
2022/08/06 10:30:20;;;;;;;9.23;8.33;;;20.70;99.90;;;;;;5014112;28;20411;-65
2022/08/06 10:32:55;;;;;;;8.83;8.03;;;20.50;99.90;;;;;;5014432;28;20395;-65
2022/08/06 10:35:23;;;;;;;10.07;9.00;;;20.60;99.90;;;;;;5014361;28;20490;-65
2022/08/06 10:37:58;;;;;;;9.33;8.43;;;20.40;99.90;;;;;;5014328;28;20905;-65
2022/08/06 10:40:26;;;;;;;9.93;9.00;;;20.70;99.90;;;;;;5014392;28;20402;-65
2022/08/06 10:42:52;;;;;;;8.50;7.70;;;20.90;99.90;;;;;;5014466;28;20462;-65
2022/08/06 10:45:18;;;;;;;10.20;9.10;;;20.50;99.90;;;;;;5014484;28;20757;-65
2022/08/06 10:47:46;;;;;;;11.50;9.03;;;20.20;99.90;;;;;;5013986;28;20465;-65
2022/08/06 10:50:13;;;;;;;8.93;8.17;;;20.80;99.90;;;;;;5013875;28;20426;-65
2022/08/06 10:52:40;;;;;;;9.37;8.57;;;21.20;99.90;;;;;;5014037;28;20760;-65
2022/08/06 10:55:07;;;;;;;8.63;7.83;;;21.10;99.90;;;;;;5014354;28;20399;-67
2022/08/06 10:57:33;;;;;;;10.40;7.77;;;21.20;99.90;;;;;;5014104;28;20407;-64
2022/08/06 11:00:00;;;;;;;9.27;8.37;;;21.10;99.90;;;;;;5013960;28;20434;-65
2022/08/06 11:02:52;;;;;;;9.37;8.57;;;21.00;99.90;;;;;;5014617;28;20419;-65
2022/08/06 11:05:21;;;;;;;8.90;7.97;;;20.80;99.90;;;;;;5018548;28;20407;-65
2022/08/06 11:08:06;;;;;;;8.80;7.90;;;20.90;99.90;;;;;;5019735;28;20566;-65
2022/08/06 11:10:46;;;;;;;8.27;7.47;;;20.80;99.90;;;;;;5020293;28;20411;-65
2022/08/06 11:13:24;;;;;;;9.70;8.70;;;20.80;99.90;;;;;;5021651;28;20387;-65
2022/08/06 11:15:51;;;;;;;12.00;9.03;;;20.90;99.90;;;;;;5021535;28;20434;-64
2022/08/06 11:18:18;;;;;;;7.53;6.90;;;21.20;99.90;;;;;;5020298;28;20415;-65
2022/08/06 11:20:46;;;;;;;9.70;7.70;;;21.70;99.90;;;;;;5021214;28;20406;-66
2022/08/06 11:23:11;;;;;;;8.60;7.90;;;21.90;99.90;;;;;;5019316;28;20443;-64
2022/08/06 11:25:40;;;;;;;10.20;8.47;;;21.90;99.90;;;;;;5017888;28;20407;-65
2022/08/06 11:28:07;;;;;;;8.50;7.80;;;21.40;99.90;;;;;;5015508;28;20538;-65
2022/08/06 11:30:48;;;;;;;7.97;7.30;;;21.80;99.90;;;;;;5013164;28;20800;-65
2022/08/06 11:33:33;;;;;;;12.73;7.40;;;21.90;99.90;;;;;;5012914;28;20781;-65
2022/08/06 11:36:04;;;;;;;8.13;7.40;;;21.50;99.90;;;;;;5013180;28;20399;-65
2022/08/06 11:41:30;;;;;;;7.07;6.40;;;21.90;99.90;;;;;;5013528;28;20406;-65
2022/08/06 11:43:56;;;;;;;8.80;8.00;;;21.80;99.90;;;;;;5013372;28;20408;-65
2022/08/06 11:46:27;;;;;;;7.13;6.43;;;21.60;99.90;;;;;;5013017;28;20407;-65
2022/08/06 11:48:59;;;;;;;7.53;6.93;;;21.70;99.90;;;;;;5012639;28;20427;-65
2022/08/06 11:51:46;;;;;;;7.40;6.57;;;21.50;99.90;;;;;;5013063;28;20404;-65
2022/08/06 11:54:16;;;;;;;8.30;7.13;;;21.80;99.90;;;;;;5012872;28;20419;-65
2022/08/06 11:57:06;;;;;;;9.70;5.87;;;22.10;99.90;;;;;;5012459;28;20414;-64
2022/08/06 11:59:56;;;;;;;10.17;7.37;;;22.30;99.90;;;;;;5012637;28;20458;-64
2022/08/06 12:02:45;;;;;;;10.03;6.60;;;22.20;99.90;;;;;;5004454;28;20419;-66
2022/08/06 12:05:14;;;;;;;7.83;7.03;;;22.10;99.90;;;;;;5012625;28;21089;-66
2022/08/06 12:07:44;;;;;;;8.27;7.57;;;21.90;99.90;;;;;;5012669;28;20455;-68
2022/08/06 12:10:11;;;;;;;7.90;7.20;;;21.90;99.90;;;;;;5011447;28;20443;-65
2022/08/06 12:12:50;;;;;;;10.00;6.90;;;21.80;99.90;;;;;;5011554;28;20454;-65
2022/08/06 12:15:16;;;;;;;8.60;6.03;;;21.80;99.90;;;;;;5011467;28;20443;-64
2022/08/06 12:17:54;;;;;;;8.27;7.40;;;21.60;99.90;;;;;;5010681;28;20463;-65
2022/08/06 12:20:36;;;;;;;7.33;6.63;;;21.80;99.90;;;;;;5011637;28;20254;-65
2022/08/06 12:23:07;;;;;;;7.90;7.20;;;21.80;99.90;;;;;;5011611;28;20402;-65
2022/08/06 12:25:34;;;;;;;9.13;7.07;;;21.60;99.90;;;;;;5011407;28;20888;-65
2022/08/06 12:28:00;;;;;;;6.70;5.40;;;21.50;99.90;;;;;;4993488;28;20462;-65
2022/08/06 12:30:26;;;;;;;11.27;6.00;;;21.80;99.90;;;;;;5011490;28;20403;-65
2022/08/06 12:33:02;;;;;;;6.13;5.23;;;22.10;99.90;;;;;;5011434;28;20160;-65
2022/08/06 12:35:28;;;;;;;12.00;5.77;;;22.20;99.90;;;;;;5008826;28;20403;-64
2022/08/06 12:37:55;;;;;;;5.80;5.30;;;22.30;99.90;;;;;;4991132;28;20425;-64
2022/08/06 12:40:26;;;;;;;6.07;5.50;;;22.40;99.90;;;;;;5008827;28;20200;-64
2022/08/06 12:42:53;;;;;;;8.73;6.73;;;22.20;99.90;;;;;;5008826;28;20435;-65
2022/08/06 12:45:23;;;;;;;6.60;5.70;;;22.30;99.90;;;;;;5009004;28;20499;-64
2022/08/06 12:48:10;;;;;;;6.50;5.27;;;22.30;99.90;;;;;;5008373;28;20944;-65
2022/08/06 12:50:39;;;;;;;12.30;6.00;;;22.00;99.90;;;;;;5008038;28;20410;-65
2022/08/06 12:53:13;;;;;;;6.83;5.10;;;22.10;99.90;;;;;;5008506;28;20407;-65
2022/08/06 12:55:44;;;;;;;33.07;7.63;;;22.20;99.90;;;;;;5008020;28;20908;-65
2022/08/06 12:58:12;;;;;;;7.20;4.57;;;22.30;99.90;;;;;;5008153;28;20407;-65
2022/08/06 13:00:40;;;;;;;8.03;5.13;;;22.30;99.90;;;;;;5007824;28;20494;-64
2022/08/06 13:03:08;;;;;;;5.83;5.23;;;21.90;99.90;;;;;;5008277;28;20415;-65
2022/08/06 13:05:34;;;;;;;6.83;5.37;;;22.10;99.90;;;;;;5007861;28;20403;-65
2022/08/06 13:08:01;;;;;;;5.50;5.00;;;22.30;99.90;;;;;;4963888;28;1280930;-65
2022/08/06 13:10:27;;;;;;;5.60;5.10;;;22.40;99.90;;;;;;5008803;28;20421;-66